Time;durP1;ratioP1;P1;durP2;ratioP2;P2;SDS_P1;SDS_P2;PMS_P1;PMS_P2;Temp;Humidity;BMP_temperature;BMP_pressure;BME280_temperature;BME280_humidity;BME280_pressure;Samples;Min_cycle;Max_cycle;Signal;HPM_P1;HPM_P2
2022/10/01 00:00:22;;;;;;;3.65;2.63;;;;;;;10.08;47.10;100310.88;5010735;28;20466;-67
2022/10/01 00:02:47;;;;;;;6.45;2.63;;;;;;;10.00;47.77;100302.56;5009521;28;20121;-67
2022/10/01 00:05:13;;;;;;;4.65;2.65;;;;;;;9.89;48.02;100310.88;5011112;28;20203;-67
2022/10/01 00:07:40;;;;;;;6.30;2.55;;;;;;;9.89;47.76;100294.38;5012147;28;20418;-67
2022/10/01 00:10:07;;;;;;;4.53;2.80;;;;;;;9.89;48.08;100302.22;5010251;28;20037;-68
2022/10/01 00:12:33;;;;;;;3.90;2.30;;;;;;;10.07;47.83;100296.13;4993540;28;20049;-68
2022/10/01 00:14:59;;;;;;;3.80;2.50;;;;;;;9.94;48.24;100287.16;5012577;28;20144;-68
2022/10/01 00:17:24;;;;;;;3.95;2.08;;;;;;;9.97;48.25;100287.88;5010470;28;20450;-68
2022/10/01 00:19:49;;;;;;;6.95;2.45;;;;;;;10.06;48.26;100289.22;5010828;28;20034;-64
2022/10/01 00:22:15;;;;;;;3.30;2.05;;;;;;;9.82;48.80;100272.94;5014899;28;20061;-65
2022/10/01 00:24:41;;;;;;;8.93;2.47;;;;;;;9.60;50.00;100278.25;5011860;28;20031;-65
2022/10/01 00:27:07;;;;;;;3.47;1.83;;;;;;;9.13;51.07;100262.97;5011845;28;20040;-66
2022/10/01 00:29:33;;;;;;;3.50;2.03;;;;;;;9.30;51.26;100263.06;5012958;28;20037;-66
2022/10/01 00:31:58;;;;;;;4.53;2.40;;;;;;;9.33;51.03;100262.94;5010569;28;20085;-66
2022/10/01 00:34:24;;;;;;;3.13;2.65;;;;;;;9.31;51.41;100261.31;5010221;28;20053;-66
2022/10/01 00:36:49;;;;;;;4.18;2.15;;;;;;;9.31;51.34;100250.88;5015896;28;20040;-65
2022/10/01 00:39:14;;;;;;;6.43;2.78;;;;;;;9.33;51.42;100255.09;5010091;28;20065;-65
2022/10/01 00:41:41;;;;;;;4.30;2.25;;;;;;;9.43;50.77;100245.09;5010087;28;20452;-66
2022/10/01 00:44:27;;;;;;;4.63;2.50;;;;;;;9.35;51.62;100240.22;5006001;28;20044;-65
2022/10/01 00:46:54;;;;;;;2.83;2.25;;;;;;;9.46;51.25;100236.31;5010467;28;20033;-66
2022/10/01 00:49:23;;;;;;;3.15;2.85;;;;;;;9.38;51.70;100232.25;5011404;28;20795;-66
2022/10/01 00:51:53;;;;;;;3.58;2.75;;;;;;;9.44;51.50;100232.91;5010370;28;20041;-67
2022/10/01 00:54:25;;;;;;;5.93;2.88;;;;;;;9.22;52.38;100220.00;5010914;28;20061;-67
2022/10/01 00:56:54;;;;;;;4.35;2.88;;;;;;;9.12;52.40;100219.53;5016659;28;20030;-67
2022/10/01 00:59:20;;;;;;;2.72;2.20;;;;;;;9.23;52.15;100219.94;5014683;28;20030;-68
2022/10/01 01:01:45;;;;;;;6.45;2.67;;;;;;;9.33;52.08;100212.53;5015986;28;20056;-68
2022/10/01 01:04:16;;;;;;;3.92;2.88;;;;;;;9.21;52.27;100208.72;5010004;28;20168;-69
2022/10/01 01:06:45;;;;;;;5.60;2.88;;;;;;;9.35;51.74;100215.94;4998453;28;20029;-69
2022/10/01 01:09:10;;;;;;;3.42;2.53;;;;;;;9.31;51.91;100210.00;5014209;28;20180;-64
2022/10/01 01:11:55;;;;;;;4.53;4.07;;;;;;;9.15;52.22;100198.56;5010417;28;20040;-65
2022/10/01 01:14:43;;;;;;;5.00;3.35;;;;;;;9.07;52.53;100196.28;5006678;28;20050;-65
2022/10/01 01:17:32;;;;;;;5.28;2.88;;;;;;;8.91;53.33;100188.31;5010429;28;20057;-65
2022/10/01 01:20:27;;;;;;;5.07;3.55;;;;;;;8.94;53.15;100182.97;5010381;28;20117;-71
2022/10/01 01:23:11;;;;;;;4.25;3.17;;;;;;;8.79;53.91;100170.63;5012756;28;20049;-69
2022/10/01 01:25:48;;;;;;;4.53;3.75;;;;;;;8.65;54.46;100167.72;5009025;28;20038;-69
2022/10/01 01:28:13;;;;;;;5.15;3.38;;;;;;;8.84;53.78;100163.44;5008158;28;20990;-68
2022/10/01 01:30:40;;;;;;;4.28;3.22;;;;;;;8.60;54.96;100154.03;5010348;28;20018;-68
2022/10/01 01:33:14;;;;;;;5.18;3.65;;;;;;;8.64;54.49;100158.22;5004977;28;20140;-68
2022/10/01 01:36:03;;;;;;;8.10;3.60;;;;;;;8.38;55.60;100143.69;5011342;28;20449;-67
2022/10/01 01:38:34;;;;;;;5.10;4.05;;;;;;;8.41;55.57;100138.38;4991379;28;20050;-68
2022/10/01 01:41:01;;;;;;;5.13;3.80;;;;;;;8.65;55.18;100131.25;5012062;28;20041;-68
2022/10/01 01:43:32;;;;;;;4.05;3.42;;;;;;;8.41;55.66;100117.53;5008008;28;20046;-69
2022/10/01 01:46:01;;;;;;;4.47;3.30;;;;;;;8.49;55.95;100115.44;4998654;28;20068;-69
2022/10/01 01:48:29;;;;;;;5.18;3.92;;;;;;;8.53;56.06;100112.63;5013092;28;20552;-69
2022/10/01 01:51:10;;;;;;;8.15;3.58;;;;;;;8.19;56.69;100092.41;5022563;28;20089;-69
2022/10/01 01:53:36;;;;;;;5.63;3.78;;;;;;;8.40;56.24;100090.63;5008402;28;20077;-68
2022/10/01 01:56:02;;;;;;;5.60;4.00;;;;;;;8.23;57.08;100082.72;5009910;28;20080;-68
2022/10/01 01:58:28;;;;;;;5.55;4.28;;;;;;;8.33;56.86;100078.81;5007830;28;20045;-68
2022/10/01 02:00:54;;;;;;;5.40;4.10;;;;;;;8.44;56.42;100073.97;5009778;28;20124;-68
2022/10/01 02:03:22;;;;;;;5.47;4.55;;;;;;;8.30;56.67;100069.38;5008247;28;20046;-63
2022/10/01 02:06:12;;;;;;;5.80;4.40;;;;;;;8.01;57.81;100068.00;5007398;28;20021;-63
2022/10/01 02:08:48;;;;;;;5.70;4.68;;;;;;;8.08;57.82;100053.81;5007489;28;20156;-64
2022/10/01 02:11:19;;;;;;;4.60;3.97;;;;;;;8.06;57.60;100052.19;5008599;28;20045;-64
2022/10/01 02:14:02;;;;;;;6.65;4.85;;;;;;;8.17;57.64;100051.75;5012647;28;20064;-66
2022/10/01 02:16:54;;;;;;;7.53;5.05;;;;;;;7.87;58.42;100039.97;5010436;28;20494;-66
2022/10/01 02:19:30;;;;;;;10.05;5.05;;;;;;;8.20;57.80;100030.78;5008748;28;20069;-65
2022/10/01 02:22:00;;;;;;;6.78;4.75;;;;;;;8.25;57.52;100039.22;5005229;28;20033;-65
2022/10/01 02:24:40;;;;;;;8.73;5.68;;;;;;;8.06;58.17;100029.63;5008622;28;20574;-65
2022/10/01 02:27:19;;;;;;;5.95;4.45;;;;;;;7.64;59.27;100020.09;5006188;28;20604;-65
2022/10/01 02:29:45;;;;;;;5.28;4.32;;;;;;;8.11;58.54;100016.41;5008396;28;20034;-65
2022/10/01 02:32:12;;;;;;;6.20;4.20;;;;;;;7.87;59.23;100007.88;5011291;28;20053;-64
2022/10/01 02:34:39;;;;;;;6.00;5.20;;;;;;;7.98;59.06;100016.09;5008638;28;20033;-64
2022/10/01 02:37:06;;;;;;;6.45;5.38;;;;;;;8.10;58.54;99997.34;4995092;28;20041;-64
2022/10/01 02:39:34;;;;;;;8.38;5.75;;;;;;;7.95;59.03;100001.44;5010587;28;20048;-70
2022/10/01 02:42:04;;;;;;;7.40;5.25;;;;;;;8.02;58.84;99991.63;4994097;28;20091;-66
2022/10/01 02:44:39;;;;;;;7.18;5.57;;;;;;;8.00;59.13;99987.41;5014589;28;20044;-66
2022/10/01 02:47:33;;;;;;;8.32;6.10;;;;;;;7.72;60.04;99976.41;4989353;28;20050;-66
2022/10/01 02:50:00;;;;;;;9.07;7.00;;;;;;;7.81;59.79;99971.75;5029956;28;21672;-66
2022/10/01 02:52:49;;;;;;;12.75;6.80;;;;;;;7.91;59.39;99971.28;5007340;28;20110;-67
2022/10/01 02:55:19;;;;;;;9.77;5.88;;;;;;;7.62;60.28;99961.25;5030055;28;20041;-66
2022/10/01 02:57:44;;;;;;;8.80;6.22;;;;;;;7.70;60.24;99954.00;5008164;28;20513;-66
2022/10/01 03:00:14;;;;;;;9.50;6.28;;;;;;;7.57;61.14;99951.06;5010299;28;20048;-67
2022/10/01 03:02:39;;;;;;;9.80;6.63;;;;;;;7.99;59.82;99949.28;5005618;28;20057;-67
2022/10/01 03:05:05;;;;;;;14.20;6.85;;;;;;;7.94;60.03;99946.88;5010079;28;20037;-67
2022/10/01 03:07:34;;;;;;;8.88;6.30;;;;;;;8.02;59.40;99944.78;5007048;28;20034;-68
2022/10/01 03:10:00;;;;;;;12.00;7.40;;;;;;;7.67;60.54;99928.97;5012584;28;20728;-66
2022/10/01 03:12:26;;;;;;;12.57;7.90;;;;;;;7.80;60.11;99928.41;5007321;28;20104;-66
2022/10/01 03:14:52;;;;;;;8.48;7.35;;;;;;;7.76;60.29;99924.25;5013765;28;20037;-66
2022/10/01 03:17:18;;;;;;;9.65;7.57;;;;;;;7.92;59.94;99922.69;5011015;28;20154;-66
2022/10/01 03:19:46;;;;;;;9.43;7.20;;;;;;;8.16;59.28;99928.56;5012008;28;20068;-66
2022/10/01 03:22:13;;;;;;;14.50;7.68;;;;;;;8.12;59.73;99914.00;5011340;28;20038;-67
2022/10/01 03:24:39;;;;;;;13.63;8.70;;;;;;;8.07;60.07;99903.81;5017063;28;20499;-67
2022/10/01 03:27:05;;;;;;;9.50;7.28;;;;;;;7.95;59.82;99904.34;5009783;28;20049;-68
2022/10/01 03:29:30;;;;;;;10.43;7.30;;;;;;;7.71;60.67;99899.31;5014894;28;20033;-66
2022/10/01 03:31:56;;;;;;;11.02;7.90;;;;;;;7.80;60.55;99894.59;5007285;28;20047;-70
2022/10/01 03:34:22;;;;;;;9.98;7.40;;;;;;;8.05;60.06;99897.81;5009914;28;20116;-71
2022/10/01 03:36:48;;;;;;;10.45;7.75;;;;;;;7.91;60.38;99897.56;5010227;28;20030;-70
2022/10/01 03:39:14;;;;;;;9.27;6.80;;;;;;;7.79;60.64;99885.13;5009732;28;20540;-67
2022/10/01 03:41:40;;;;;;;10.77;7.88;;;;;;;7.90;60.69;99882.88;5012551;28;20040;-67
2022/10/01 03:44:06;;;;;;;13.95;8.85;;;;;;;7.83;60.42;99871.06;5011348;28;20048;-66
2022/10/01 03:46:31;;;;;;;11.27;7.53;;;;;;;8.07;59.97;99872.56;5012352;28;20040;-66
2022/10/01 03:48:58;;;;;;;11.10;7.55;;;;;;;7.87;60.58;99857.00;5006351;28;20046;-66
2022/10/01 03:51:23;;;;;;;11.80;7.40;;;;;;;7.74;60.83;99867.13;5010572;28;20493;-66
2022/10/01 03:53:49;;;;;;;10.27;7.70;;;;;;;7.95;60.65;99860.09;5012157;28;20048;-65
2022/10/01 03:56:15;;;;;;;9.55;7.57;;;;;;;7.78;60.87;99857.41;5008520;28;20034;-68
2022/10/01 03:58:41;;;;;;;8.95;6.40;;;;;;;7.74;61.09;99854.94;4996746;28;20048;-68
2022/10/01 04:01:06;;;;;;;11.20;6.60;;;;;;;7.75;60.81;99847.97;5009290;28;20022;-69
2022/10/01 04:03:32;;;;;;;8.90;6.60;;;;;;;7.85;60.92;99861.44;5017018;28;20037;-66
2022/10/01 04:05:57;;;;;;;8.90;7.05;;;;;;;7.98;60.37;99859.97;5010940;28;20052;-66
2022/10/01 04:08:23;;;;;;;10.80;7.10;;;;;;;7.61;61.83;99847.75;5013201;28;20054;-67
2022/10/01 04:10:49;;;;;;;9.15;7.13;;;;;;;7.61;61.39;99863.38;5008995;28;20064;-66
2022/10/01 04:13:14;;;;;;;10.57;6.93;;;;;;;7.82;60.97;99830.34;5008443;28;20434;-66
2022/10/01 04:15:40;;;;;;;9.88;6.32;;;;;;;7.69;61.31;99830.91;5012397;28;20086;-66
2022/10/01 04:18:07;;;;;;;7.93;6.60;;;;;;;7.66;61.49;99844.03;5009512;28;20041;-67
2022/10/01 04:20:34;;;;;;;9.23;6.22;;;;;;;7.79;61.49;99833.94;5014127;28;20583;-69
2022/10/01 04:23:00;;;;;;;7.32;5.63;;;;;;;7.66;61.77;99832.78;5029239;28;20056;-69
2022/10/01 04:25:26;;;;;;;8.00;6.15;;;;;;;7.57;62.08;99818.44;5009677;28;20025;-70
2022/10/01 04:28:00;;;;;;;6.00;4.75;;;;;;;7.76;61.39;99807.19;5012451;28;20049;-70
2022/10/01 04:30:28;;;;;;;8.73;6.20;;;;;;;7.66;61.86;99812.81;5015625;28;20033;-70
2022/10/01 04:32:55;;;;;;;7.13;5.32;;;;;;;7.51;62.37;99796.13;5009242;28;20053;-69
2022/10/01 04:35:21;;;;;;;7.75;5.70;;;;;;;8.07;60.65;99797.09;5010196;28;20044;-69
2022/10/01 04:37:54;;;;;;;4.70;4.00;;;;;;;7.95;60.84;99795.06;4998404;28;20168;-70
2022/10/01 04:40:20;;;;;;;6.97;4.90;;;;;;;8.03;60.89;99797.31;5009489;28;20043;-69
2022/10/01 04:42:46;;;;;;;6.05;4.38;;;;;;;8.13;60.61;99796.78;4993298;28;20045;-70
2022/10/01 04:45:11;;;;;;;6.38;4.85;;;;;;;7.79;61.86;99794.06;5012649;28;20033;-68
2022/10/01 04:47:36;;;;;;;5.53;4.88;;;;;;;7.93;61.19;99786.47;5011344;28;20037;-69
2022/10/01 04:50:02;;;;;;;6.22;4.57;;;;;;;7.76;61.81;99781.19;5010657;28;20043;-70
2022/10/01 04:52:28;;;;;;;5.47;3.95;;;;;;;7.83;62.04;99791.25;5013364;28;20046;-68
2022/10/01 04:54:53;;;;;;;5.60;4.90;;;;;;;8.25;60.43;99778.91;5009241;28;20072;-68
2022/10/01 04:57:22;;;;;;;7.25;5.55;;;;;;;8.03;60.85;99785.13;5010266;28;20038;-71
2022/10/01 04:59:47;;;;;;;7.32;5.13;;;;;;;7.81;61.75;99785.28;5014394;28;20191;-71
2022/10/01 05:02:13;;;;;;;7.03;5.80;;;;;;;7.97;61.78;99785.41;5004970;28;20994;-71
2022/10/01 05:04:39;;;;;;;5.18;4.20;;;;;;;8.19;60.78;99802.66;5017604;28;20034;-72
2022/10/01 05:07:05;;;;;;;4.70;4.22;;;;;;;8.34;60.39;99799.31;4990944;28;20053;-72
2022/10/01 05:09:30;;;;;;;6.18;4.57;;;;;;;8.38;60.24;99803.44;5015952;28;21013;-73
2022/10/01 05:11:56;;;;;;;6.63;4.18;;;;;;;8.37;60.47;99793.94;5009509;28;20063;-70
2022/10/01 05:14:21;;;;;;;6.40;4.65;;;;;;;8.42;60.25;99797.16;5025484;28;20116;-73
2022/10/01 05:16:47;;;;;;;5.00;4.53;;;;;;;8.31;60.56;99789.03;5010648;28;20033;-71
2022/10/01 05:19:13;;;;;;;5.63;4.45;;;;;;;8.57;59.95;99796.44;5009206;28;20478;-70
2022/10/01 05:21:38;;;;;;;4.30;3.90;;;;;;;8.39;60.78;99792.13;5011956;28;20037;-70
2022/10/01 05:24:04;;;;;;;5.55;3.65;;;;;;;8.38;60.62;99785.22;5008157;28;20048;-72
2022/10/01 05:26:30;;;;;;;4.20;3.78;;;;;;;7.71;62.58;99790.06;5016604;28;20035;-72
2022/10/01 05:28:59;;;;;;;4.15;3.53;;;;;;;8.56;60.42;99784.34;5008465;28;20094;-71
2022/10/01 05:31:25;;;;;;;4.15;3.58;;;;;;;8.42;60.50;99784.16;5009438;28;20056;-70
2022/10/01 05:33:51;;;;;;;3.75;3.35;;;;;;;8.73;59.62;99772.25;5006799;28;20045;-73
2022/10/01 05:36:16;;;;;;;4.32;3.92;;;;;;;8.74;59.83;99769.59;5010833;28;20042;-73
2022/10/01 05:38:42;;;;;;;5.55;4.10;;;;;;;8.68;59.98;99766.41;5010617;28;20079;-73
2022/10/01 05:41:08;;;;;;;4.03;3.63;;;;;;;8.43;60.73;99762.41;4997414;28;20038;-72
2022/10/01 05:43:35;;;;;;;4.00;3.45;;;;;;;8.34;61.17;99757.66;5012108;28;20667;-74
2022/10/01 05:46:01;;;;;;;3.47;3.03;;;;;;;8.24;61.93;99764.22;5008622;28;20522;-72
2022/10/01 05:48:27;;;;;;;3.17;2.88;;;;;;;8.47;60.57;99756.16;5012227;28;20095;-70
2022/10/01 05:50:53;;;;;;;3.33;3.03;;;;;;;8.50;60.93;99761.19;5007292;28;20148;-70
2022/10/01 05:53:19;;;;;;;3.20;2.90;;;;;;;8.33;60.99;99761.16;5008371;28;20044;-73
2022/10/01 05:55:44;;;;;;;3.90;2.97;;;;;;;8.34;61.57;99752.44;5010523;28;20090;-73
2022/10/01 05:58:15;;;;;;;2.72;2.50;;;;;;;8.42;61.24;99747.69;5011877;28;20041;-71
2022/10/01 06:00:41;;;;;;;4.50;3.00;;;;;;;8.23;61.50;99749.53;5015172;28;20696;-73
2022/10/01 06:03:11;;;;;;;3.22;2.47;;;;;;;8.42;61.17;99747.69;5010208;28;20160;-75
2022/10/01 06:05:37;;;;;;;2.53;2.33;;;;;;;8.49;61.04;99746.47;5012500;28;20029;-73
2022/10/01 06:08:08;;;;;;;2.88;2.60;;;;;;;7.99;62.90;99747.16;5010124;28;20072;-73
2022/10/01 06:10:35;;;;;;;3.88;3.03;;;;;;;8.22;62.47;99737.41;5008100;28;20061;-73
2022/10/01 06:13:03;;;;;;;3.92;2.90;;;;;;;8.52;61.18;99746.34;5007573;28;20072;-70
2022/10/01 06:15:30;;;;;;;4.45;3.63;;;;;;;8.01;63.03;99741.91;5008759;28;20030;-69
2022/10/01 06:18:00;;;;;;;4.90;3.17;;;;;;;8.10;62.96;99738.84;5006259;28;20133;-67
2022/10/01 06:20:25;;;;;;;2.92;2.63;;;;;;;8.06;63.26;99748.56;5025888;28;20168;-70
2022/10/01 06:22:54;;;;;;;3.10;2.80;;;;;;;7.99;63.11;99741.97;4995933;28;20124;-70
2022/10/01 06:25:20;;;;;;;4.00;2.60;;;;;;;8.25;63.13;99739.84;4997295;28;20026;-71
2022/10/01 06:27:55;;;;;;;3.17;2.88;;;;;;;8.68;61.44;99736.00;5010805;28;20073;-76
2022/10/01 06:30:21;;;;;;;3.70;3.05;;;;;;;8.69;61.13;99731.63;5013059;28;20075;-76
2022/10/01 06:32:46;;;;;;;4.00;2.00;;;;;;;7.91;63.67;99742.34;5013769;28;20069;-69
2022/10/01 06:35:13;;;;;;;4.60;2.63;;;;;;;8.05;63.60;99741.66;5010214;28;20096;-70
2022/10/01 06:37:38;;;;;;;3.30;2.65;;;;;;;7.89;64.41;99745.91;5014774;28;20623;-71
2022/10/01 06:40:06;;;;;;;4.65;2.50;;;;;;;8.35;62.79;99743.72;5007183;28;20034;-69
2022/10/01 06:42:31;;;;;;;2.60;2.20;;;;;;;8.88;61.55;99748.03;5008063;28;20045;-66
2022/10/01 06:44:57;;;;;;;3.70;2.50;;;;;;;8.79;61.46;99740.69;5005437;28;20033;-66
2022/10/01 06:47:22;;;;;;;2.58;2.13;;;;;;;8.03;64.01;99746.09;5012314;28;20034;-66
2022/10/01 06:49:48;;;;;;;2.10;1.90;;;;;;;8.38;63.33;99756.56;5006842;28;20109;-65
2022/10/01 06:55:00;;;;;;;2.15;1.88;;;;;;;9.07;60.90;99767.94;5026256;28;20033;-68
2022/10/01 06:57:26;;;;;;;3.22;2.03;;;;;;;8.89;61.83;99774.94;5008986;28;20045;-70
2022/10/01 06:59:52;;;;;;;4.72;1.95;;;;;;;9.09;61.34;99777.38;5008003;28;20029;-65
2022/10/01 07:02:27;;;;;;;3.63;1.73;;;;;;;9.31;61.03;99778.88;5008956;28;20521;-71
2022/10/01 07:04:59;;;;;;;1.58;1.13;;;;;;;9.08;61.47;99780.06;5008813;28;20470;-74
2022/10/01 07:07:28;;;;;;;3.38;1.85;;;;;;;9.11;61.55;99772.09;5013721;28;20864;-71
2022/10/01 07:09:54;;;;;;;1.90;1.70;;;;;;;9.24;61.37;99780.13;5008218;28;20041;-71
2022/10/01 07:12:19;;;;;;;4.25;1.63;;;;;;;9.06;61.28;99781.91;5009432;28;20056;-70
2022/10/01 07:14:45;;;;;;;2.03;1.10;;;;;;;9.61;59.74;99779.03;5007624;28;20127;-70
2022/10/01 07:17:10;;;;;;;2.15;1.70;;;;;;;9.65;60.00;99777.09;5027211;28;20402;-71
2022/10/01 07:19:36;;;;;;;2.95;1.40;;;;;;;9.35;60.69;99788.22;5009541;28;20018;-70
2022/10/01 07:22:01;;;;;;;1.95;1.45;;;;;;;8.67;63.45;99790.75;5008537;28;20045;-70
2022/10/01 07:24:26;;;;;;;1.60;1.15;;;;;;;9.36;61.21;99792.50;4996598;28;20034;-70
2022/10/01 07:26:54;;;;;;;2.75;2.03;;;;;;;9.37;61.61;99797.66;5008542;28;20707;-70
2022/10/01 07:29:22;;;;;;;8.73;2.00;;;;;;;9.69;61.05;99794.28;5008075;28;20105;-70
2022/10/01 07:31:47;;;;;;;3.28;1.60;;;;;;;10.40;59.17;99804.34;5006855;28;20405;-70
2022/10/01 07:34:13;;;;;;;2.22;1.50;;;;;;;10.60;58.14;99804.03;5008262;28;20041;-70
2022/10/01 07:36:39;;;;;;;6.00;1.98;;;;;;;10.64;58.15;99805.56;5012429;28;20044;-70
2022/10/01 07:39:05;;;;;;;5.20;1.42;;;;;;;10.24;59.11;99803.53;5005928;28;20045;-69
2022/10/01 07:41:30;;;;;;;2.08;1.08;;;;;;;10.20;59.76;99798.44;5006787;28;20124;-70
2022/10/01 07:43:56;;;;;;;2.15;1.50;;;;;;;10.40;59.31;99809.56;5009668;28;20048;-69
2022/10/01 07:46:21;;;;;;;2.45;1.13;;;;;;;10.29;59.44;99806.72;5009244;28;20085;-70
2022/10/01 07:48:48;;;;;;;3.90;1.95;;;;;;;10.04;60.20;99817.66;5006440;28;20033;-69
2022/10/01 07:51:13;;;;;;;4.38;1.90;;;;;;;9.74;61.26;99813.97;5006931;28;20064;-69
2022/10/01 07:53:39;;;;;;;2.15;1.20;;;;;;;10.41;59.47;99821.69;5006812;28;20511;-69
2022/10/01 07:56:04;;;;;;;2.22;1.58;;;;;;;10.47;59.17;99823.13;4996216;28;20034;-70
2022/10/01 07:58:30;;;;;;;6.75;1.92;;;;;;;10.61;59.75;99821.38;5022960;28;20045;-69
2022/10/01 08:00:57;;;;;;;4.13;1.23;;;;;;;11.39;57.10;99818.63;5008459;28;20047;-70
2022/10/01 08:03:25;;;;;;;4.60;2.05;;;;;;;12.43;54.83;99818.34;5000269;28;20080;-71
2022/10/01 08:05:52;;;;;;;6.63;1.85;;;;;;;13.92;53.02;99819.66;5013032;28;20148;-70
2022/10/01 08:08:17;;;;;;;2.78;0.90;;;;;;;13.60;50.38;99824.53;5012117;28;20048;-70
2022/10/01 08:10:43;;;;;;;3.33;0.93;;;;;;;14.22;50.58;99820.22;5011977;28;20041;-70
2022/10/01 08:13:14;;;;;;;4.53;1.38;;;;;;;14.58;49.07;99824.59;5008018;28;20049;-70
2022/10/01 08:15:45;;;;;;;1.07;0.60;;;;;;;15.02;48.20;99828.34;5029775;28;20783;-70
2022/10/01 08:18:10;;;;;;;7.45;0.95;;;;;;;15.59;45.43;99832.78;5022103;28;20049;-70
2022/10/01 08:20:38;;;;;;;3.40;0.65;;;;;;;16.45;44.12;99819.03;5007688;28;20052;-70
2022/10/01 08:23:13;;;;;;;3.95;0.40;;;;;;;16.40;44.76;99822.88;5005146;28;20244;-70
2022/10/01 08:25:40;;;;;;;1.70;0.70;;;;;;;16.70;43.27;99834.50;5007689;28;20079;-70
2022/10/01 08:28:10;;;;;;;1.67;0.82;;;;;;;16.50;44.66;99833.50;5010695;28;20521;-70
2022/10/01 08:30:38;;;;;;;2.85;0.90;;;;;;;16.08;44.27;99832.53;5010653;28;20037;-69
2022/10/01 08:33:03;;;;;;;2.45;0.82;;;;;;;16.81;42.77;99837.13;5004723;28;20088;-71
2022/10/01 08:35:29;;;;;;;2.63;0.73;;;;;;;16.06;44.27;99832.63;5009266;28;20045;-71
2022/10/01 08:37:59;;;;;;;3.03;0.68;;;;;;;15.20;46.72;99841.91;5005319;28;20045;-71
2022/10/01 08:40:25;;;;;;;3.50;0.50;;;;;;;15.86;45.44;99855.25;5008572;28;20029;-70
2022/10/01 08:42:58;;;;;;;3.00;0.38;;;;;;;17.02;42.81;99837.16;5011180;28;20042;-71
2022/10/01 08:45:27;;;;;;;5.65;0.60;;;;;;;16.46;43.26;99842.63;5010865;28;20081;-71
2022/10/01 08:48:31;;;;;;;4.35;0.38;;;;;;;17.14;44.38;99848.47;5028178;28;21360;-70
2022/10/01 08:51:04;;;;;;;6.18;0.60;;;;;;;15.85;45.55;99844.88;5021912;28;20273;-71
2022/10/01 08:53:38;;;;;;;5.85;0.93;;;;;;;16.61;46.00;99848.44;5008511;28;20041;-70
2022/10/01 08:56:16;;;;;;;4.88;0.77;;;;;;;17.45;43.40;99856.44;5008661;28;20486;-71
2022/10/01 08:58:47;;;;;;;2.42;0.40;;;;;;;16.39;43.87;99859.91;5023042;28;20041;-70
2022/10/01 09:01:12;;;;;;;8.15;0.88;;;;;;;16.06;44.98;99858.16;4993608;28;21903;-69
2022/10/01 09:03:39;;;;;;;7.53;0.95;;;;;;;16.58;44.19;99864.53;5009195;28;20514;-71
2022/10/01 09:06:21;;;;;;;6.07;0.75;;;;;;;16.13;44.67;99877.78;5005829;28;20621;-69
2022/10/01 09:09:08;;;;;;;5.68;0.68;;;;;;;15.95;45.48;99882.69;5010481;28;20042;-69
2022/10/01 09:11:37;;;;;;;5.63;0.77;;;;;;;15.99;45.27;99878.84;4987299;28;20042;-69
2022/10/01 09:14:42;;;;;;;3.25;0.55;;;;;;;16.08;44.18;99885.25;5019962;28;20110;-69
2022/10/01 09:17:20;;;;;;;7.95;0.50;;;;;;;17.10;41.92;99884.00;4978517;28;20045;-70
2022/10/01 09:19:53;;;;;;;5.38;0.80;;;;;;;17.10;42.99;99893.75;5013237;28;20083;-70
2022/10/01 09:22:39;;;;;;;6.75;0.50;;;;;;;17.17;44.09;99887.81;5007021;28;20148;-70
2022/10/01 09:25:08;;;;;;;4.90;0.52;;;;;;;17.17;42.59;99897.53;5002417;28;20064;-69
2022/10/01 09:27:36;;;;;;;9.13;0.30;;;;;;;16.70;41.87;99892.53;5005557;28;20561;-69
2022/10/01 09:30:11;;;;;;;7.32;0.40;;;;;;;17.19;41.89;99904.34;5025904;28;20041;-69
2022/10/01 09:33:10;;;;;;;7.05;0.82;;;;;;;16.82;42.38;99904.78;5027434;28;20490;-69
2022/10/01 09:35:55;;;;;;;4.43;0.32;;;;;;;15.84;44.87;99920.44;4999230;28;20033;-68
2022/10/01 09:38:23;;;;;;;6.45;0.60;;;;;;;16.36;43.01;99908.44;5013483;28;20041;-69
2022/10/01 09:40:54;;;;;;;5.60;0.47;;;;;;;16.43;43.30;99927.25;5007557;28;20037;-69
2022/10/01 09:43:22;;;;;;;4.60;0.40;;;;;;;16.17;43.77;99921.41;5012048;28;20093;-69
2022/10/01 09:45:51;;;;;;;5.45;0.43;;;;;;;15.97;43.70;99923.81;5010305;28;20025;-69
2022/10/01 09:48:46;;;;;;;3.85;0.30;;;;;;;16.87;42.38;99924.66;5004209;28;20124;-69
2022/10/01 09:51:17;;;;;;;9.73;1.10;;;;;;;17.30;41.71;99926.41;5007574;28;20099;-69
2022/10/01 09:54:05;;;;;;;3.97;0.25;;;;;;;17.70;41.00;99923.06;5029035;28;20050;-69
2022/10/01 09:56:38;;;;;;;5.68;0.35;;;;;;;16.86;41.66;99938.81;5009146;28;20029;-70
2022/10/01 09:59:10;;;;;;;6.47;0.45;;;;;;;17.15;40.96;99945.19;5004635;28;20057;-69
2022/10/01 10:01:43;;;;;;;2.85;0.73;;;;;;;17.03;42.03;99947.03;5009321;28;20658;-70
2022/10/01 10:04:10;;;;;;;6.57;0.73;;;;;;;17.91;40.68;99950.28;5004865;28;20141;-69
2022/10/01 10:06:36;;;;;;;6.50;1.15;;;;;;;17.67;41.28;99950.59;5009137;28;20051;-70
2022/10/01 10:09:02;;;;;;;3.35;0.10;;;;;;;18.48;39.50;99946.22;5007891;28;20046;-70
2022/10/01 10:11:30;;;;;;;4.10;0.30;;;;;;;18.97;38.95;99950.81;5008759;28;20037;-69
2022/10/01 10:14:01;;;;;;;6.35;0.70;;;;;;;17.89;39.30;99960.16;5006597;28;20055;-70
2022/10/01 10:16:34;;;;;;;8.02;0.40;;;;;;;17.47;39.33;99962.81;5009697;28;20413;-69
2022/10/01 10:19:08;;;;;;;4.25;0.10;;;;;;;16.65;40.58;99947.50;5008875;28;20044;-70
2022/10/01 10:21:34;;;;;;;6.97;0.17;;;;;;;16.35;41.29;99966.56;5014083;28;20124;-69
2022/10/01 10:24:03;;;;;;;8.35;0.32;;;;;;;16.70;41.07;99961.13;5010746;28;20906;-69
2022/10/01 10:26:31;;;;;;;6.93;1.05;;;;;;;16.18;41.40;99971.38;5009268;28;20026;-69
2022/10/01 10:29:02;;;;;;;6.80;0.20;;;;;;;16.46;42.13;99968.38;5006465;28;20041;-70
2022/10/01 10:31:42;;;;;;;4.32;0.30;;;;;;;15.90;42.76;99972.66;5024373;28;20045;-70
2022/10/01 10:34:17;;;;;;;7.82;0.88;;;;;;;15.94;42.48;99968.81;5027789;28;20041;-72
2022/10/01 10:36:44;;;;;;;7.85;0.50;;;;;;;16.20;42.73;99973.91;5010149;28;20034;-68
2022/10/01 10:39:16;;;;;;;7.32;0.60;;;;;;;15.82;43.10;99980.31;5007454;28;20513;-69
2022/10/01 10:41:44;;;;;;;6.00;0.30;;;;;;;16.16;42.86;99981.22;5012691;28;20048;-69
2022/10/01 10:44:20;;;;;;;5.28;0.65;;;;;;;16.49;41.98;99968.97;5006561;28;20226;-70
2022/10/01 10:46:47;;;;;;;6.40;0.30;;;;;;;16.25;42.21;99974.38;5009117;28;20060;-69
2022/10/01 10:49:24;;;;;;;3.95;0.98;;;;;;;16.10;41.03;99972.94;5011436;28;20130;-69
2022/10/01 10:51:55;;;;;;;5.28;0.52;;;;;;;15.91;42.75;99974.34;5008659;28;20044;-69
2022/10/01 10:54:29;;;;;;;3.38;0.20;;;;;;;15.98;41.79;99996.63;5011641;28;20083;-69
2022/10/01 10:56:59;;;;;;;1.10;0.25;;;;;;;15.29;42.92;100008.88;5009505;28;20075;-69
2022/10/01 10:59:25;;;;;;;3.00;0.20;;;;;;;13.93;44.92;100002.59;5006239;28;20064;-70
2022/10/01 11:01:51;;;;;;;2.25;0.15;;;;;;;13.67;46.92;100011.38;5006095;28;20438;-69
2022/10/01 11:04:41;;;;;;;3.70;0.38;;;;;;;13.72;46.57;100011.94;5009143;28;20037;-69
2022/10/01 11:07:09;;;;;;;4.15;0.15;;;;;;;14.03;46.67;100022.97;5005964;28;20049;-69
2022/10/01 11:09:53;;;;;;;6.10;0.55;;;;;;;13.42;47.01;100020.00;5029505;28;20319;-69
2022/10/01 11:12:34;;;;;;;4.53;0.10;;;;;;;13.23;46.91;100033.50;5009607;28;20049;-69
2022/10/01 11:15:25;;;;;;;5.38;0.17;;;;;;;13.57;45.58;100042.66;5007992;28;20046;-69
2022/10/01 11:18:04;;;;;;;2.92;0.22;;;;;;;12.69;45.30;100049.97;5009325;28;20056;-69
2022/10/01 11:20:32;;;;;;;0.45;0.00;;;;;;;12.64;44.06;100058.09;5007785;28;20478;-69
2022/10/01 11:23:05;;;;;;;1.88;0.30;;;;;;;12.76;44.70;100063.56;5009160;28;20041;-69
2022/10/01 11:25:57;;;;;;;1.27;0.00;;;;;;;12.27;46.92;100070.00;5010593;28;20025;-69
2022/10/01 11:28:32;;;;;;;;;;;;;;;12.64;46.86;100073.00;5022965;28;20052;-70
2022/10/01 11:31:09;;;;;;;2.05;0.10;;;;;;;11.85;48.98;100068.97;5011397;28;20047;-70
2022/10/01 11:33:43;;;;;;;2.90;0.05;;;;;;;12.13;49.94;100062.09;5007378;28;20042;-70
2022/10/01 11:36:20;;;;;;;1.15;0.13;;;;;;;11.19;51.85;100072.66;5007459;28;20057;-71
2022/10/01 11:38:58;;;;;;;1.85;0.08;;;;;;;11.74;51.74;100073.97;5012602;28;20526;-70
2022/10/01 11:41:32;;;;;;;3.83;0.20;;;;;;;10.76;54.34;100086.28;5012181;28;20117;-71
2022/10/01 11:44:21;;;;;;;1.60;0.20;;;;;;;11.03;53.73;100091.81;5011954;28;20053;-70
2022/10/01 11:46:52;;;;;;;1.98;0.10;;;;;;;11.46;53.97;100084.22;4997790;28;20369;-71
2022/10/01 11:49:27;;;;;;;7.57;0.25;;;;;;;11.71;54.31;100087.22;5014174;28;20034;-71
2022/10/01 11:52:08;;;;;;;2.08;0.10;;;;;;;13.04;51.25;100097.63;5011444;28;20133;-70